createdAt,value
2024-04-14T00:03:13.697Z,101067.22
2024-04-14T00:08:24.846Z,101068.81
2024-04-14T00:13:29.858Z,101070.25
2024-04-14T00:18:41.331Z,101073.38
2024-04-14T00:23:46.908Z,101066.59
2024-04-14T00:28:52.147Z,101060.38
2024-04-14T00:34:00.130Z,101077.31
2024-04-14T00:39:05.246Z,101060.91
2024-04-14T00:44:10.338Z,101055.56
2024-04-14T00:49:18.127Z,101060.56
2024-04-14T00:54:23.976Z,101062.66
2024-04-14T00:59:30.222Z,101089.72
2024-04-14T01:04:38.307Z,101082.88
2024-04-14T01:09:43.265Z,101076.78
2024-04-14T01:14:48.251Z,101091.28
2024-04-14T01:20:03.455Z,101100.38
2024-04-14T01:25:16.307Z,101102.22
2024-04-14T01:30:21.631Z,101103.50
2024-04-14T01:35:29.660Z,101103.19
2024-04-14T01:40:37.246Z,101104.28
2024-04-14T01:45:42.389Z,101096.00
2024-04-14T01:50:47.735Z,101094.66
2024-04-14T01:55:55.374Z,101103.13
2024-04-14T02:01:00.445Z,101103.44
2024-04-14T02:06:05.595Z,101113.22
2024-04-14T02:11:13.215Z,101115.66
2024-04-14T02:16:18.291Z,101132.50
2024-04-14T02:21:23.426Z,101137.00
2024-04-14T02:26:31.035Z,101138.97
2024-04-14T02:31:36.054Z,101149.38
2024-04-14T02:36:45.728Z,101166.84
2024-04-14T02:41:53.435Z,101172.25
2024-04-14T02:46:58.421Z,101185.22
2024-04-14T02:52:03.530Z,101184.50
2024-04-14T02:57:11.166Z,101187.34
2024-04-14T03:02:16.220Z,101180.09
2024-04-14T03:07:21.294Z,101205.19
2024-04-14T03:12:28.944Z,101210.69
2024-04-14T03:17:34.287Z,101206.22
2024-04-14T03:22:39.303Z,101211.50
2024-04-14T03:27:46.934Z,101213.94
2024-04-14T03:33:17.657Z,101231.59
2024-04-14T03:38:22.774Z,101240.94
2024-04-14T03:43:30.628Z,101247.03
2024-04-14T03:48:35.937Z,101253.84
2024-04-14T03:53:41.986Z,101262.97
2024-04-14T03:58:50.392Z,101265.84
2024-04-14T04:03:57.797Z,101276.72
2024-04-14T04:09:05.353Z,101268.47
2024-04-14T04:14:13.554Z,101296.72
2024-04-14T04:19:25.901Z,101275.09
2024-04-14T04:24:33.783Z,101290.97
2024-04-14T04:29:41.549Z,101302.34
2024-04-14T04:34:46.627Z,101307.28
2024-04-14T04:39:51.776Z,101299.63
2024-04-14T04:44:59.330Z,101309.50
2024-04-14T04:50:04.448Z,101310.69
2024-04-14T04:55:09.659Z,101316.09
2024-04-14T05:00:18.184Z,101324.28
2024-04-14T05:05:23.137Z,101330.72
2024-04-14T05:10:31.120Z,101343.31
2024-04-14T05:15:39.967Z,101353.28
2024-04-14T05:20:44.950Z,101345.28
2024-04-14T05:25:52.687Z,101349.69
2024-04-14T05:31:00.419Z,101351.63
2024-04-14T05:36:05.498Z,101353.09
2024-04-14T05:41:10.474Z,101364.94
2024-04-14T05:46:18.073Z,101376.66
2024-04-14T05:51:52.011Z,101367.50
2024-04-14T05:56:57.287Z,101374.94
2024-04-14T06:02:05.077Z,101390.97
2024-04-14T06:07:13.291Z,101404.56
2024-04-14T06:12:18.319Z,101397.38
2024-04-14T06:17:26.082Z,101406.13
2024-04-14T06:22:32.262Z,101407.25
2024-04-14T06:27:37.378Z,101409.53
2024-04-14T06:32:45.002Z,101396.84
2024-04-14T06:37:50.255Z,101417.16
2024-04-14T06:42:55.488Z,101425.91
2024-04-14T06:48:03.145Z,101420.19
2024-04-14T06:53:08.504Z,101422.06
2024-04-14T06:58:13.619Z,101423.50
2024-04-14T07:03:21.310Z,101415.91
2024-04-14T07:08:26.843Z,101427.41
2024-04-14T07:13:31.862Z,101435.28
2024-04-14T07:18:39.773Z,101433.03
2024-04-14T07:23:44.595Z,101439.13
2024-04-14T07:28:49.563Z,101445.25
2024-04-14T07:34:01.362Z,101452.34
2024-04-14T07:39:07.319Z,101452.47
2024-04-14T07:44:12.495Z,101463.91
2024-04-14T07:49:20.211Z,101467.53
2024-04-14T08:00:03.286Z,101471.50
2024-04-14T08:05:31.304Z,101474.44
2024-04-14T08:10:36.342Z,101480.41
2024-04-14T08:15:41.292Z,101476.38
2024-04-14T08:20:49.008Z,101488.16
2024-04-14T08:25:54.008Z,101485.25
2024-04-14T08:30:59.301Z,101496.31
2024-04-14T08:36:08.144Z,101504.34
2024-04-14T08:41:17.998Z,101501.06
2024-04-14T08:46:24.284Z,101494.56
2024-04-14T08:51:33.608Z,101498.56
2024-04-14T08:56:38.813Z,101504.34
2024-04-14T09:01:44.451Z,101492.53
2024-04-14T09:06:55.893Z,101505.88
2024-04-14T09:12:01.941Z,101503.00
2024-04-14T09:17:07.143Z,101503.16
2024-04-14T09:22:14.902Z,101521.50
2024-04-14T09:27:20.952Z,101515.22
2024-04-14T09:32:27.318Z,101504.38
2024-04-14T09:37:35.836Z,101516.41
2024-04-14T09:42:41.511Z,101506.44
2024-04-14T09:47:47.926Z,101525.09
2024-04-14T09:52:56.884Z,101520.47
2024-04-14T09:58:02.167Z,101520.75
2024-04-14T10:03:11.237Z,101543.88
2024-04-14T10:08:21.527Z,101535.28
2024-04-14T10:13:26.717Z,101528.31
2024-04-14T10:18:35.586Z,101523.75
2024-04-14T10:23:49.522Z,101527.78
2024-04-14T10:28:55.884Z,101536.84
2024-04-14T10:34:09.428Z,101547.03
2024-04-14T10:39:18.821Z,101540.19
2024-04-14T10:44:25.265Z,101539.47
2024-04-14T10:49:30.483Z,101544.94
2024-04-14T10:54:39.063Z,101555.00
2024-04-14T10:59:44.306Z,101541.66
2024-04-14T11:04:49.591Z,101547.34
2024-04-14T11:09:57.884Z,101544.22
2024-04-14T11:15:08.114Z,101530.19
2024-04-14T11:20:17.158Z,101521.38
2024-04-14T11:25:25.063Z,101525.78
2024-04-14T11:30:34.377Z,101518.88
2024-04-14T11:35:39.818Z,101525.47
2024-04-14T11:40:47.697Z,101533.03
2024-04-14T11:45:53.225Z,101528.41
2024-04-14T11:50:58.410Z,101528.47
2024-04-14T11:56:06.098Z,101525.16
2024-04-14T12:01:11.628Z,101536.38
2024-04-14T12:06:16.738Z,101531.66
2024-04-14T12:11:24.406Z,101519.97
2024-04-14T12:16:29.563Z,101525.44
2024-04-14T12:21:35.927Z,101528.16
2024-04-14T12:26:43.821Z,101515.13
2024-04-14T12:31:50.068Z,101506.16
2024-04-14T12:36:55.133Z,101506.56
2024-04-14T12:42:02.845Z,101516.22
2024-04-14T12:47:08.208Z,101512.22
2024-04-14T12:52:15.048Z,101517.97
2024-04-14T12:57:22.722Z,101501.94
2024-04-14T13:02:27.724Z,101490.06
2024-04-14T13:07:32.656Z,101501.84
2024-04-14T13:12:41.416Z,101481.97
2024-04-14T13:17:47.029Z,101489.56
2024-04-14T13:22:52.116Z,101492.66
2024-04-14T13:27:59.690Z,101485.31
2024-04-14T13:33:05.228Z,101469.72
2024-04-14T13:38:10.438Z,101467.09
2024-04-14T13:43:18.651Z,101476.56
2024-04-14T13:48:23.802Z,101471.91
2024-04-14T13:53:44.638Z,101447.28
2024-04-14T13:58:58.049Z,101449.84
2024-04-14T14:04:06.228Z,101433.44
2024-04-14T14:09:14.039Z,101434.78
2024-04-14T14:14:21.851Z,101437.00
2024-04-14T14:19:39.174Z,101432.50
2024-04-14T14:24:51.902Z,101434.78
2024-04-14T14:30:00.841Z,101428.03
2024-04-14T14:35:35.402Z,101431.00
2024-04-14T14:40:57.975Z,101436.72
2024-04-14T14:46:12.401Z,101422.91
